»·PEaware :: PRC3775 KPDX-KSFO

PRC3775 :: KPDX-KSFO

FLIGHT INFORMATION

Flight Status: Arrived
Operator: Unknown
More flights by this operator :: More flights under this callsign
Pilot: Jessica F. (17029)
Aircraft: BOEING 757-200
(B752)
More flights by this aircraft type
Origin: KPDX Portland Intl
United States
Destination: KSFO San Francisco Intl
United States
More flights between these airports :: More routes between these airports
Route: MINNE5 FAMUK Q3 FOWND MLBEC BDEGA2
File this flight plan on PilotEdge
Remarks: PBN / A1B3B4B5C4D4O4 DOF / 180722 REG / N752SB EET / KZOA0041 OPR / PRC PER / D RMK / TCAS SIMBRIEF
Altitude:
(Current/Filed)
37,000ft
Speed:
(Current/Filed)
465kts
Departed: 21-Jul-18 05:45 PM
Arrived: 21-Jul-18 07:21 PM
Distance/Time
Traveled:
478nm/1:36
Distance/Time
To Go:
Arrived

Flight Plot

Page will automatically refresh every two minutes.


Map Options




Map Legend


Flown Route
Filed Route
Departure Airport
Arrival Airport
Navaid (VOR, NDB)
Fix

Horizontal Profiles

Position Reports

Time Latitude Longitude Heading Altitude Ground
Speed
21-Jul-18 17:23 45.589887 -122.597301 208 28ft 0kts
21-Jul-18 17:24 45.589887 -122.597301 208 28ft 0kts
21-Jul-18 17:25 45.589887 -122.597301 208 28ft 0kts
21-Jul-18 17:26 45.589887 -122.597301 208 28ft 0kts
21-Jul-18 17:27 45.589887 -122.597301 208 28ft 0kts
21-Jul-18 17:28 45.589887 -122.597301 208 28ft 0kts
21-Jul-18 17:29 45.589887 -122.597301 208 28ft 0kts
21-Jul-18 17:30 45.589887 -122.597301 208 28ft 0kts
21-Jul-18 17:31 45.589887 -122.597301 208 28ft 0kts
21-Jul-18 17:32 45.589887 -122.597301 208 28ft 0kts
21-Jul-18 17:33 45.589887 -122.597301 208 28ft 0kts
21-Jul-18 17:34 45.589887 -122.597301 208 28ft 0kts
21-Jul-18 17:35 45.589887 -122.597301 208 28ft 0kts
21-Jul-18 17:36 45.589887 -122.597301 208 28ft 0kts
21-Jul-18 17:37 45.589887 -122.597301 208 28ft 0kts
21-Jul-18 17:38 45.589887 -122.597301 208 28ft 0kts
21-Jul-18 17:39 45.589887 -122.597301 208 28ft 0kts
21-Jul-18 17:40 45.590267 -122.596857 250 28ft 2kts
21-Jul-18 17:41 45.590395 -122.596793 299 28ft 7kts
21-Jul-18 17:42 45.590936 -122.598176 298 28ft 0kts
21-Jul-18 17:43 45.590936 -122.598176 298 28ft 0kts
21-Jul-18 17:44 45.591149 -122.598772 294 28ft 11kts
21-Jul-18 17:45 45.588899 -122.600092 117 28ft 0kts
21-Jul-18 17:46 45.586670 -122.594369 126 28ft 44kts
21-Jul-18 17:47 45.581602 -122.583741 149 28ft 0kts
21-Jul-18 17:48 45.581602 -122.583741 149 28ft 0kts
21-Jul-18 17:49 45.583475 -122.591518 298 28ft 105kts
21-Jul-18 17:50 45.606356 -122.646237 301 2104ft 196kts
21-Jul-18 17:51 45.636018 -122.718013 301 5076ft 215kts
21-Jul-18 17:52 45.668905 -122.802072 287 8037ft 260kts
21-Jul-18 17:53 45.650183 -122.904685 234 10623ft 317kts
21-Jul-18 17:54 45.559326 -122.946376 173 13135ft 390kts
21-Jul-18 17:55 45.449559 -122.944042 187 16542ft 404kts
21-Jul-18 17:56 45.335707 -122.955778 188 19632ft 420kts
21-Jul-18 17:57 45.218070 -122.969201 190 22572ft 429kts
21-Jul-18 17:58 45.100772 -122.996799 196 25140ft 433kts
21-Jul-18 17:59 44.981280 -123.024914 196 27355ft 442kts
21-Jul-18 18:00 44.860042 -123.053075 196 29280ft 450kts
21-Jul-18 18:01 44.737082 -123.081465 195 30961ft 456kts
21-Jul-18 18:02 44.614778 -123.109529 196 33331ft 440kts
21-Jul-18 18:03 44.495387 -123.134466 188 35163ft 437kts
21-Jul-18 18:04 44.374424 -123.131135 186 36526ft 433kts
21-Jul-18 18:05 44.254760 -123.127036 186 36962ft 431kts
21-Jul-18 18:06 44.136814 -123.122849 186 36971ft 424kts
21-Jul-18 18:07 44.019649 -123.118717 186 36962ft 425kts
21-Jul-18 18:08 43.901529 -123.114555 186 36970ft 426kts
21-Jul-18 18:09 43.785570 -123.110490 186 36972ft 426kts
21-Jul-18 18:10 43.667669 -123.106371 185 36974ft 424kts
21-Jul-18 18:11 43.549776 -123.102247 185 36934ft 423kts
21-Jul-18 18:12 43.432371 -123.098172 186 36931ft 424kts
21-Jul-18 18:13 43.315061 -123.094119 185 36928ft 423kts
21-Jul-18 18:14 43.208487 -123.090475 185 36925ft 421kts
21-Jul-18 18:15 43.100828 -123.086762 185 36930ft 422kts
21-Jul-18 18:16 42.988319 -123.082904 185 36927ft 421kts
21-Jul-18 18:17 42.872706 -123.078967 185 37043ft 421kts
21-Jul-18 18:18 42.756687 -123.075025 185 37041ft 421kts
21-Jul-18 18:19 42.640303 -123.071096 184 37038ft 419kts
21-Jul-18 18:20 42.524259 -123.067178 184 37014ft 418kts
21-Jul-18 18:21 42.408007 -123.063337 184 36883ft 418kts
21-Jul-18 18:22 42.291950 -123.059594 184 36874ft 419kts
21-Jul-18 18:23 42.175768 -123.055870 184 36873ft 418kts
21-Jul-18 18:24 42.059896 -123.052140 183 36874ft 418kts
21-Jul-18 18:25 41.944288 -123.048413 183 36872ft 417kts
21-Jul-18 18:26 41.831479 -123.044830 183 36903ft 418kts
21-Jul-18 18:27 41.715461 -123.041153 183 36905ft 415kts
21-Jul-18 18:28 41.600491 -123.037503 183 36900ft 415kts
21-Jul-18 18:29 41.485447 -123.033869 183 36900ft 415kts
21-Jul-18 18:30 41.370328 -123.030248 183 36933ft 415kts
21-Jul-18 18:31 41.255178 -123.026718 183 36923ft 414kts
21-Jul-18 18:32 41.140412 -123.023257 182 36849ft 415kts
21-Jul-18 18:33 41.025384 -123.019779 182 36842ft 415kts
21-Jul-18 18:34 40.910302 -123.016320 182 36844ft 415kts
21-Jul-18 18:35 40.798060 -123.012947 182 36856ft 414kts
21-Jul-18 18:36 40.683447 -123.009559 181 36858ft 413kts
21-Jul-18 18:37 40.568524 -123.006128 182 36851ft 414kts
21-Jul-18 18:38 40.454202 -123.002735 181 36852ft 413kts
21-Jul-18 18:39 40.339341 -122.999335 182 36853ft 413kts
21-Jul-18 18:40 40.224687 -122.995981 181 36850ft 413kts
21-Jul-18 18:41 40.110302 -122.992600 181 36792ft 414kts
21-Jul-18 18:42 39.995393 -122.989244 181 36754ft 414kts
21-Jul-18 18:43 39.885316 -122.986039 181 36765ft 414kts
21-Jul-18 18:44 39.771213 -122.982731 181 36761ft 414kts
21-Jul-18 18:45 39.656354 -122.979413 180 36817ft 413kts
21-Jul-18 18:46 39.541705 -122.976090 180 36825ft 413kts
21-Jul-18 18:47 39.427336 -122.972801 180 36813ft 413kts
21-Jul-18 18:48 39.312743 -122.969502 180 36814ft 413kts
21-Jul-18 18:49 39.202730 -122.966367 180 36812ft 386kts
21-Jul-18 18:50 39.095125 -122.963320 180 36024ft 393kts
21-Jul-18 18:51 38.985587 -122.961169 180 33982ft 402kts
21-Jul-18 18:52 38.874324 -122.957280 173 31998ft 415kts
21-Jul-18 18:53 38.761140 -122.925147 169 29921ft 428kts
21-Jul-18 18:54 38.646664 -122.891448 168 27684ft 417kts
21-Jul-18 18:55 38.535532 -122.858708 167 25659ft 402kts
21-Jul-18 18:56 38.433758 -122.828775 167 23789ft 384kts
21-Jul-18 18:57 38.335061 -122.799823 167 21972ft 374kts
21-Jul-18 18:58 38.235089 -122.770577 166 20385ft 365kts
21-Jul-18 18:59 38.137249 -122.742093 166 18550ft 359kts
21-Jul-18 19:00 38.041351 -122.714265 167 16664ft 350kts
21-Jul-18 19:01 37.947962 -122.687237 167 14911ft 341kts
21-Jul-18 19:02 37.868041 -122.639011 141 13921ft 289kts
21-Jul-18 19:03 37.807254 -122.575393 141 11564ft 281kts
21-Jul-18 19:04 37.748120 -122.512901 141 11019ft 279kts
21-Jul-18 19:05 37.689175 -122.450287 140 11018ft 277kts
21-Jul-18 19:06 37.630272 -122.387714 140 11018ft 277kts
21-Jul-18 19:07 37.565853 -122.338041 153 10570ft 274kts
21-Jul-18 19:08 37.500253 -122.294913 153 8995ft 268kts
21-Jul-18 19:09 37.451451 -122.231590 113 7462ft 270kts
21-Jul-18 19:10 37.426690 -122.146498 106 5991ft 247kts
21-Jul-18 19:11 37.462857 -122.089542 22 4586ft 234kts
21-Jul-18 19:12 37.517206 -122.055721 23 4019ft 198kts
21-Jul-18 19:13 37.565861 -122.023616 23 4018ft 199kts
21-Jul-18 19:14 37.607191 -122.034843 266 4037ft 179kts
21-Jul-18 19:15 37.594397 -122.092951 253 3021ft 155kts
21-Jul-18 19:16 37.581607 -122.143668 253 2538ft 141kts
21-Jul-18 19:17 37.571355 -122.186361 264 1795ft 121kts
21-Jul-18 19:18 37.574538 -122.228413 278 1803ft 120kts
21-Jul-18 19:19 37.582601 -122.268796 294 1818ft 120kts
21-Jul-18 19:20 37.593054 -122.312411 292 1239ft 141kts
21-Jul-18 19:21 37.609412 -122.352803 295 318ft 119kts
21-Jul-18 19:22 37.618987 -122.377560 264 23ft 0kts
21-Jul-18 19:23 37.619047 -122.382441 272 23ft 21kts

Navigation Log

Ident Type
1. KPDX Airport
2. RIVRR Fix
3. COSUG Fix
4. BISLE Fix
5. MINNE Fix
6. FAMUK Fix
7. FAMUK Navaid
8. FRFLY Navaid
9. FINER Navaid
10. FOWND Navaid
11. MLBEC Fix
12. JONNE Fix
13. BGGLO Fix
14. LOZIT Fix
15. BDEGA Fix
16. CORKK Fix
17. BRIXX Fix
18. KSFO Airport